logo
Rechercher aéroport 
image banner adimage banner adimage banner ad
image banner ad

SJ4J - Aero Helinorte

Situé à São João Do Araguaia, Brazil

ICAO - SJ4J, IATA -

Données fournies par Airmate  

Information générale

Coordonnées: S5°26'52" W48°55'12"
Élévation : 482 feet MSL.
 
Voir autres Aéroports à Tocatins

Données opérationnelles

Special qualification required
Heure actuelle UTC:
Heure actuelle locale:
Météo à : SBMA - João Correa Da Rocha ( 26 km )
TAF: TAF SBMA 171500Z 1718/1806 25005KT 9999 SCT025 TX34/1718Z TN24/1806Z BECMG 1720/1722 20005KT CAVOK BECMG 1800/1802 00000KT RMK PHD
Voir NOTAMs / SUP AIP / TFR affectant cet aéroport [VIEW]
Fréquences de communication: [VIEW]

Pistes:

Coordonnées de l'aéroport

Adresse: São João Do Araguaia Brazil

Vue satellite de SJ4J